sensor_id;sensor_type;location;lat;lon;timestamp;P1;durP1;ratioP1;P2;durP2;ratioP2
1699;SDS011;847;48.058;7.810;2022-08-19T00:00:43;13.17;;;11.87;;
1699;SDS011;847;48.058;7.810;2022-08-19T00:03:09;11.87;;;10.70;;
1699;SDS011;847;48.058;7.810;2022-08-19T00:05:36;11.50;;;10.40;;
1699;SDS011;847;48.058;7.810;2022-08-19T00:08:03;11.87;;;10.77;;
1699;SDS011;847;48.058;7.810;2022-08-19T00:10:31;11.30;;;10.27;;
1699;SDS011;847;48.058;7.810;2022-08-19T00:12:58;10.97;;;9.87;;
1699;SDS011;847;48.058;7.810;2022-08-19T00:15:25;10.93;;;9.83;;
1699;SDS011;847;48.058;7.810;2022-08-19T00:17:52;10.50;;;9.50;;
1699;SDS011;847;48.058;7.810;2022-08-19T00:20:20;12.27;;;11.10;;
1699;SDS011;847;48.058;7.810;2022-08-19T00:22:48;12.30;;;11.03;;
1699;SDS011;847;48.058;7.810;2022-08-19T00:25:16;10.63;;;9.63;;
1699;SDS011;847;48.058;7.810;2022-08-19T00:27:44;11.83;;;10.10;;
1699;SDS011;847;48.058;7.810;2022-08-19T00:30:12;11.13;;;10.20;;
1699;SDS011;847;48.058;7.810;2022-08-19T00:32:39;10.33;;;9.43;;
1699;SDS011;847;48.058;7.810;2022-08-19T00:35:06;10.90;;;10.00;;
1699;SDS011;847;48.058;7.810;2022-08-19T00:37:34;13.53;;;11.00;;
1699;SDS011;847;48.058;7.810;2022-08-19T00:40:03;11.43;;;10.33;;
1699;SDS011;847;48.058;7.810;2022-08-19T00:42:30;10.83;;;9.83;;
1699;SDS011;847;48.058;7.810;2022-08-19T00:44:59;10.60;;;9.53;;
1699;SDS011;847;48.058;7.810;2022-08-19T00:47:25;12.13;;;10.80;;
1699;SDS011;847;48.058;7.810;2022-08-19T00:49:54;11.90;;;10.80;;
1699;SDS011;847;48.058;7.810;2022-08-19T00:52:25;11.73;;;10.63;;
1699;SDS011;847;48.058;7.810;2022-08-19T00:54:55;11.53;;;10.37;;
1699;SDS011;847;48.058;7.810;2022-08-19T00:57:24;10.97;;;9.87;;
1699;SDS011;847;48.058;7.810;2022-08-19T00:59:56;14.00;;;10.90;;
1699;SDS011;847;48.058;7.810;2022-08-19T01:02:27;11.33;;;10.27;;
1699;SDS011;847;48.058;7.810;2022-08-19T01:04:55;10.77;;;9.77;;
1699;SDS011;847;48.058;7.810;2022-08-19T01:07:23;11.87;;;10.77;;
1699;SDS011;847;48.058;7.810;2022-08-19T01:09:49;11.50;;;10.50;;
1699;SDS011;847;48.058;7.810;2022-08-19T01:12:17;11.57;;;10.57;;
1699;SDS011;847;48.058;7.810;2022-08-19T01:14:44;11.57;;;10.57;;
1699;SDS011;847;48.058;7.810;2022-08-19T01:17:13;11.30;;;10.20;;
1699;SDS011;847;48.058;7.810;2022-08-19T01:19:42;11.03;;;10.13;;
1699;SDS011;847;48.058;7.810;2022-08-19T01:22:12;12.60;;;11.40;;
1699;SDS011;847;48.058;7.810;2022-08-19T01:24:46;12.43;;;11.20;;
1699;SDS011;847;48.058;7.810;2022-08-19T01:27:13;12.83;;;11.57;;
1699;SDS011;847;48.058;7.810;2022-08-19T01:29:40;13.10;;;11.80;;
1699;SDS011;847;48.058;7.810;2022-08-19T01:32:09;12.37;;;11.17;;
1699;SDS011;847;48.058;7.810;2022-08-19T01:34:38;11.77;;;10.67;;
1699;SDS011;847;48.058;7.810;2022-08-19T01:37:06;12.97;;;11.67;;
1699;SDS011;847;48.058;7.810;2022-08-19T01:39:36;13.60;;;12.30;;
1699;SDS011;847;48.058;7.810;2022-08-19T01:42:06;12.97;;;11.87;;
1699;SDS011;847;48.058;7.810;2022-08-19T01:44:36;12.57;;;11.33;;
1699;SDS011;847;48.058;7.810;2022-08-19T01:47:03;25.67;;;12.37;;
1699;SDS011;847;48.058;7.810;2022-08-19T01:49:31;12.90;;;11.70;;
1699;SDS011;847;48.058;7.810;2022-08-19T01:51:58;12.67;;;11.33;;
1699;SDS011;847;48.058;7.810;2022-08-19T01:54:27;12.27;;;11.27;;
1699;SDS011;847;48.058;7.810;2022-08-19T01:57:01;12.43;;;11.23;;
1699;SDS011;847;48.058;7.810;2022-08-19T01:59:32;11.10;;;10.00;;
1699;SDS011;847;48.058;7.810;2022-08-19T02:02:01;14.30;;;11.23;;
1699;SDS011;847;48.058;7.810;2022-08-19T02:04:31;13.07;;;11.87;;
1699;SDS011;847;48.058;7.810;2022-08-19T02:06:59;12.47;;;11.17;;
1699;SDS011;847;48.058;7.810;2022-08-19T02:09:25;12.00;;;10.83;;
1699;SDS011;847;48.058;7.810;2022-08-19T02:11:52;12.83;;;11.53;;
1699;SDS011;847;48.058;7.810;2022-08-19T02:14:19;13.00;;;11.70;;
1699;SDS011;847;48.058;7.810;2022-08-19T02:16:47;12.27;;;11.07;;
1699;SDS011;847;48.058;7.810;2022-08-19T02:19:14;12.90;;;11.70;;
1699;SDS011;847;48.058;7.810;2022-08-19T02:21:41;13.60;;;12.30;;
1699;SDS011;847;48.058;7.810;2022-08-19T02:24:08;13.53;;;12.20;;
1699;SDS011;847;48.058;7.810;2022-08-19T02:26:35;14.20;;;12.90;;
1699;SDS011;847;48.058;7.810;2022-08-19T02:29:02;12.60;;;11.40;;
1699;SDS011;847;48.058;7.810;2022-08-19T02:31:29;13.87;;;12.47;;
1699;SDS011;847;48.058;7.810;2022-08-19T02:33:57;18.83;;;12.50;;
1699;SDS011;847;48.058;7.810;2022-08-19T02:36:24;12.37;;;11.27;;
1699;SDS011;847;48.058;7.810;2022-08-19T02:38:52;12.50;;;11.40;;
1699;SDS011;847;48.058;7.810;2022-08-19T02:41:19;13.03;;;11.73;;
1699;SDS011;847;48.058;7.810;2022-08-19T02:43:47;12.80;;;11.60;;
1699;SDS011;847;48.058;7.810;2022-08-19T02:46:15;12.77;;;11.57;;
1699;SDS011;847;48.058;7.810;2022-08-19T02:48:45;13.53;;;12.03;;
1699;SDS011;847;48.058;7.810;2022-08-19T02:51:16;12.83;;;11.73;;
1699;SDS011;847;48.058;7.810;2022-08-19T02:53:44;12.80;;;11.23;;
1699;SDS011;847;48.058;7.810;2022-08-19T02:56:11;14.90;;;11.83;;
1699;SDS011;847;48.058;7.810;2022-08-19T02:58:38;14.60;;;13.30;;
1699;SDS011;847;48.058;7.810;2022-08-19T03:01:05;14.50;;;12.93;;
1699;SDS011;847;48.058;7.810;2022-08-19T03:03:32;11.90;;;10.70;;
1699;SDS011;847;48.058;7.810;2022-08-19T03:06:03;14.77;;;13.23;;
1699;SDS011;847;48.058;7.810;2022-08-19T03:08:33;13.00;;;11.70;;
1699;SDS011;847;48.058;7.810;2022-08-19T03:11:00;12.63;;;11.43;;
1699;SDS011;847;48.058;7.810;2022-08-19T03:13:27;14.33;;;12.83;;
1699;SDS011;847;48.058;7.810;2022-08-19T03:15:54;13.00;;;11.80;;
1699;SDS011;847;48.058;7.810;2022-08-19T03:18:21;15.07;;;13.27;;
1699;SDS011;847;48.058;7.810;2022-08-19T03:20:49;14.03;;;12.73;;
1699;SDS011;847;48.058;7.810;2022-08-19T03:23:17;14.23;;;12.73;;
1699;SDS011;847;48.058;7.810;2022-08-19T03:25:47;16.37;;;13.00;;
1699;SDS011;847;48.058;7.810;2022-08-19T03:28:15;13.57;;;12.17;;
1699;SDS011;847;48.058;7.810;2022-08-19T03:30:44;14.17;;;12.77;;
1699;SDS011;847;48.058;7.810;2022-08-19T03:33:22;14.97;;;13.67;;
1699;SDS011;847;48.058;7.810;2022-08-19T03:36:00;14.00;;;12.50;;
1699;SDS011;847;48.058;7.810;2022-08-19T03:38:28;14.93;;;13.37;;
1699;SDS011;847;48.058;7.810;2022-08-19T03:40:56;14.13;;;12.73;;
1699;SDS011;847;48.058;7.810;2022-08-19T03:43:23;18.43;;;14.00;;
1699;SDS011;847;48.058;7.810;2022-08-19T03:45:59;14.37;;;12.87;;
1699;SDS011;847;48.058;7.810;2022-08-19T03:48:27;14.33;;;12.93;;
1699;SDS011;847;48.058;7.810;2022-08-19T03:50:55;15.17;;;13.77;;
1699;SDS011;847;48.058;7.810;2022-08-19T03:53:23;14.70;;;13.30;;
1699;SDS011;847;48.058;7.810;2022-08-19T03:55:51;14.80;;;13.40;;
1699;SDS011;847;48.058;7.810;2022-08-19T03:58:19;15.87;;;14.37;;
1699;SDS011;847;48.058;7.810;2022-08-19T04:00:46;19.03;;;15.43;;
1699;SDS011;847;48.058;7.810;2022-08-19T04:03:12;14.97;;;13.50;;
1699;SDS011;847;48.058;7.810;2022-08-19T04:05:39;15.17;;;13.73;;
1699;SDS011;847;48.058;7.810;2022-08-19T04:08:06;14.20;;;12.90;;
1699;SDS011;847;48.058;7.810;2022-08-19T04:10:35;16.03;;;12.80;;
1699;SDS011;847;48.058;7.810;2022-08-19T04:13:02;15.03;;;13.57;;
1699;SDS011;847;48.058;7.810;2022-08-19T04:15:31;15.43;;;13.90;;
1699;SDS011;847;48.058;7.810;2022-08-19T04:18:04;14.50;;;13.27;;
1699;SDS011;847;48.058;7.810;2022-08-19T04:20:32;15.30;;;13.80;;
1699;SDS011;847;48.058;7.810;2022-08-19T04:23:03;15.73;;;14.10;;
1699;SDS011;847;48.058;7.810;2022-08-19T04:25:34;16.40;;;14.70;;
1699;SDS011;847;48.058;7.810;2022-08-19T04:28:02;16.87;;;14.43;;
1699;SDS011;847;48.058;7.810;2022-08-19T04:30:29;18.07;;;13.87;;
1699;SDS011;847;48.058;7.810;2022-08-19T04:32:57;16.40;;;14.90;;
1699;SDS011;847;48.058;7.810;2022-08-19T04:35:24;16.73;;;15.03;;
1699;SDS011;847;48.058;7.810;2022-08-19T04:37:51;16.67;;;15.00;;
1699;SDS011;847;48.058;7.810;2022-08-19T04:40:17;16.60;;;15.00;;
1699;SDS011;847;48.058;7.810;2022-08-19T04:43:02;18.13;;;16.33;;
1699;SDS011;847;48.058;7.810;2022-08-19T04:45:28;18.33;;;15.27;;
1699;SDS011;847;48.058;7.810;2022-08-19T04:47:56;17.93;;;16.07;;
1699;SDS011;847;48.058;7.810;2022-08-19T04:50:23;17.50;;;15.80;;
1699;SDS011;847;48.058;7.810;2022-08-19T04:52:51;18.27;;;16.30;;
1699;SDS011;847;48.058;7.810;2022-08-19T04:55:18;16.70;;;15.03;;
1699;SDS011;847;48.058;7.810;2022-08-19T04:57:44;18.37;;;16.53;;
1699;SDS011;847;48.058;7.810;2022-08-19T05:00:11;18.57;;;16.77;;
1699;SDS011;847;48.058;7.810;2022-08-19T05:02:39;17.57;;;15.20;;
1699;SDS011;847;48.058;7.810;2022-08-19T05:05:08;17.13;;;15.30;;
1699;SDS011;847;48.058;7.810;2022-08-19T05:07:35;17.87;;;16.07;;
1699;SDS011;847;48.058;7.810;2022-08-19T05:10:02;17.43;;;15.50;;
1699;SDS011;847;48.058;7.810;2022-08-19T05:12:30;17.40;;;15.70;;
1699;SDS011;847;48.058;7.810;2022-08-19T05:14:58;16.93;;;15.33;;
1699;SDS011;847;48.058;7.810;2022-08-19T05:17:25;17.97;;;16.13;;
1699;SDS011;847;48.058;7.810;2022-08-19T05:19:53;17.00;;;15.27;;
1699;SDS011;847;48.058;7.810;2022-08-19T05:22:39;17.80;;;16.00;;
1699;SDS011;847;48.058;7.810;2022-08-19T05:25:07;17.87;;;16.00;;
1699;SDS011;847;48.058;7.810;2022-08-19T05:27:37;16.00;;;14.50;;
1699;SDS011;847;48.058;7.810;2022-08-19T05:30:04;17.20;;;15.40;;
1699;SDS011;847;48.058;7.810;2022-08-19T05:32:31;18.03;;;16.13;;
1699;SDS011;847;48.058;7.810;2022-08-19T05:34:58;18.70;;;15.77;;
1699;SDS011;847;48.058;7.810;2022-08-19T05:37:25;17.10;;;15.43;;
1699;SDS011;847;48.058;7.810;2022-08-19T05:39:54;17.57;;;15.77;;
1699;SDS011;847;48.058;7.810;2022-08-19T05:42:21;17.57;;;15.97;;
1699;SDS011;847;48.058;7.810;2022-08-19T05:44:49;19.00;;;17.20;;
1699;SDS011;847;48.058;7.810;2022-08-19T05:47:16;17.97;;;16.13;;
1699;SDS011;847;48.058;7.810;2022-08-19T05:49:44;18.63;;;16.80;;
1699;SDS011;847;48.058;7.810;2022-08-19T05:52:12;20.23;;;17.60;;
1699;SDS011;847;48.058;7.810;2022-08-19T05:54:40;18.57;;;16.83;;
1699;SDS011;847;48.058;7.810;2022-08-19T05:57:09;18.30;;;16.50;;
1699;SDS011;847;48.058;7.810;2022-08-19T05:59:36;17.47;;;15.70;;
1699;SDS011;847;48.058;7.810;2022-08-19T06:02:03;18.83;;;16.80;;
1699;SDS011;847;48.058;7.810;2022-08-19T06:04:32;18.40;;;16.50;;
1699;SDS011;847;48.058;7.810;2022-08-19T06:06:59;17.17;;;15.47;;
1699;SDS011;847;48.058;7.810;2022-08-19T06:09:26;17.27;;;15.47;;
1699;SDS011;847;48.058;7.810;2022-08-19T06:11:54;18.73;;;16.80;;
1699;SDS011;847;48.058;7.810;2022-08-19T06:14:26;17.30;;;14.27;;
1699;SDS011;847;48.058;7.810;2022-08-19T06:16:55;17.50;;;15.70;;
1699;SDS011;847;48.058;7.810;2022-08-19T06:19:22;16.43;;;14.77;;
1699;SDS011;847;48.058;7.810;2022-08-19T06:21:50;17.10;;;15.00;;
1699;SDS011;847;48.058;7.810;2022-08-19T06:24:19;18.97;;;17.27;;
1699;SDS011;847;48.058;7.810;2022-08-19T06:26:48;17.57;;;15.77;;
1699;SDS011;847;48.058;7.810;2022-08-19T06:29:16;16.13;;;14.53;;
1699;SDS011;847;48.058;7.810;2022-08-19T06:31:46;16.30;;;14.20;;
1699;SDS011;847;48.058;7.810;2022-08-19T06:34:14;15.87;;;14.27;;
1699;SDS011;847;48.058;7.810;2022-08-19T06:36:43;17.67;;;15.73;;
1699;SDS011;847;48.058;7.810;2022-08-19T06:39:12;15.57;;;13.97;;
1699;SDS011;847;48.058;7.810;2022-08-19T06:41:40;15.57;;;13.97;;
1699;SDS011;847;48.058;7.810;2022-08-19T06:44:08;15.03;;;13.63;;
1699;SDS011;847;48.058;7.810;2022-08-19T06:46:36;15.37;;;13.97;;
1699;SDS011;847;48.058;7.810;2022-08-19T06:49:04;16.47;;;13.80;;
1699;SDS011;847;48.058;7.810;2022-08-19T06:51:36;15.47;;;13.93;;
1699;SDS011;847;48.058;7.810;2022-08-19T06:54:04;15.53;;;13.93;;
1699;SDS011;847;48.058;7.810;2022-08-19T06:56:31;15.13;;;13.73;;
1699;SDS011;847;48.058;7.810;2022-08-19T06:58:59;15.10;;;13.03;;
1699;SDS011;847;48.058;7.810;2022-08-19T07:01:26;16.43;;;13.57;;
1699;SDS011;847;48.058;7.810;2022-08-19T07:03:53;15.53;;;13.93;;
1699;SDS011;847;48.058;7.810;2022-08-19T07:06:22;15.40;;;13.90;;
1699;SDS011;847;48.058;7.810;2022-08-19T07:08:49;16.43;;;14.07;;
1699;SDS011;847;48.058;7.810;2022-08-19T07:11:17;14.17;;;12.87;;
1699;SDS011;847;48.058;7.810;2022-08-19T07:13:45;14.50;;;12.67;;
1699;SDS011;847;48.058;7.810;2022-08-19T07:16:14;15.37;;;13.87;;
1699;SDS011;847;48.058;7.810;2022-08-19T07:18:44;16.03;;;14.43;;
1699;SDS011;847;48.058;7.810;2022-08-19T07:21:12;15.80;;;13.50;;
1699;SDS011;847;48.058;7.810;2022-08-19T07:23:42;16.07;;;14.57;;
1699;SDS011;847;48.058;7.810;2022-08-19T07:26:10;15.30;;;13.17;;
1699;SDS011;847;48.058;7.810;2022-08-19T07:28:39;13.17;;;12.00;;
1699;SDS011;847;48.058;7.810;2022-08-19T07:31:09;13.87;;;12.03;;
1699;SDS011;847;48.058;7.810;2022-08-19T07:33:36;15.83;;;12.40;;
1699;SDS011;847;48.058;7.810;2022-08-19T07:36:03;14.83;;;13.23;;
1699;SDS011;847;48.058;7.810;2022-08-19T07:38:32;13.67;;;12.37;;
1699;SDS011;847;48.058;7.810;2022-08-19T07:41:00;14.80;;;13.40;;
1699;SDS011;847;48.058;7.810;2022-08-19T07:43:27;14.10;;;12.43;;
1699;SDS011;847;48.058;7.810;2022-08-19T07:45:54;14.13;;;12.83;;
1699;SDS011;847;48.058;7.810;2022-08-19T07:48:22;12.27;;;11.13;;
1699;SDS011;847;48.058;7.810;2022-08-19T07:50:50;13.80;;;12.50;;
1699;SDS011;847;48.058;7.810;2022-08-19T07:53:17;13.60;;;12.07;;
1699;SDS011;847;48.058;7.810;2022-08-19T07:55:44;12.13;;;10.70;;
1699;SDS011;847;48.058;7.810;2022-08-19T07:58:14;14.23;;;13.03;;
1699;SDS011;847;48.058;7.810;2022-08-19T08:00:43;13.43;;;12.20;;
1699;SDS011;847;48.058;7.810;2022-08-19T08:03:11;13.17;;;12.03;;
1699;SDS011;847;48.058;7.810;2022-08-19T08:05:38;12.77;;;11.53;;
1699;SDS011;847;48.058;7.810;2022-08-19T08:08:23;13.80;;;12.60;;
1699;SDS011;847;48.058;7.810;2022-08-19T08:11:07;13.10;;;11.77;;
1699;SDS011;847;48.058;7.810;2022-08-19T08:13:37;13.10;;;11.93;;
1699;SDS011;847;48.058;7.810;2022-08-19T08:16:06;13.43;;;12.13;;
1699;SDS011;847;48.058;7.810;2022-08-19T08:18:33;13.90;;;12.60;;
1699;SDS011;847;48.058;7.810;2022-08-19T08:21:06;15.50;;;13.97;;
1699;SDS011;847;48.058;7.810;2022-08-19T08:23:33;14.97;;;13.67;;
1699;SDS011;847;48.058;7.810;2022-08-19T08:26:00;17.20;;;15.60;;
1699;SDS011;847;48.058;7.810;2022-08-19T08:28:29;15.03;;;13.63;;
1699;SDS011;847;48.058;7.810;2022-08-19T08:30:58;15.63;;;14.27;;
1699;SDS011;847;48.058;7.810;2022-08-19T08:33:26;14.40;;;12.93;;
1699;SDS011;847;48.058;7.810;2022-08-19T08:35:55;15.97;;;14.50;;
1699;SDS011;847;48.058;7.810;2022-08-19T08:38:22;14.70;;;13.30;;
1699;SDS011;847;48.058;7.810;2022-08-19T08:40:50;13.90;;;12.47;;
1699;SDS011;847;48.058;7.810;2022-08-19T08:43:23;16.70;;;14.03;;
1699;SDS011;847;48.058;7.810;2022-08-19T08:45:55;16.73;;;15.23;;
1699;SDS011;847;48.058;7.810;2022-08-19T08:48:30;17.17;;;15.50;;
1699;SDS011;847;48.058;7.810;2022-08-19T08:51:04;16.27;;;14.57;;
1699;SDS011;847;48.058;7.810;2022-08-19T08:53:35;21.80;;;15.83;;
1699;SDS011;847;48.058;7.810;2022-08-19T08:56:03;15.33;;;13.93;;
1699;SDS011;847;48.058;7.810;2022-08-19T08:58:44;18.50;;;16.57;;
1699;SDS011;847;48.058;7.810;2022-08-19T09:01:17;16.97;;;15.17;;
1699;SDS011;847;48.058;7.810;2022-08-19T09:03:45;17.73;;;16.10;;
1699;SDS011;847;48.058;7.810;2022-08-19T09:06:14;17.93;;;16.23;;
1699;SDS011;847;48.058;7.810;2022-08-19T09:08:48;19.53;;;17.63;;
1699;SDS011;847;48.058;7.810;2022-08-19T09:11:19;18.67;;;16.93;;
1699;SDS011;847;48.058;7.810;2022-08-19T09:14:02;18.27;;;16.63;;
1699;SDS011;847;48.058;7.810;2022-08-19T09:16:36;19.03;;;17.17;;
1699;SDS011;847;48.058;7.810;2022-08-19T09:19:05;18.73;;;16.97;;
1699;SDS011;847;48.058;7.810;2022-08-19T09:21:33;20.57;;;17.20;;
1699;SDS011;847;48.058;7.810;2022-08-19T09:24:00;20.50;;;18.50;;
1699;SDS011;847;48.058;7.810;2022-08-19T09:26:28;19.73;;;17.93;;
1699;SDS011;847;48.058;7.810;2022-08-19T09:28:56;19.53;;;17.60;;
1699;SDS011;847;48.058;7.810;2022-08-19T09:31:25;17.77;;;15.97;;
1699;SDS011;847;48.058;7.810;2022-08-19T09:33:55;19.30;;;17.50;;
1699;SDS011;847;48.058;7.810;2022-08-19T09:36:23;21.80;;;19.60;;
1699;SDS011;847;48.058;7.810;2022-08-19T09:38:51;19.90;;;17.90;;
1699;SDS011;847;48.058;7.810;2022-08-19T09:41:19;22.17;;;18.13;;
1699;SDS011;847;48.058;7.810;2022-08-19T09:43:49;21.20;;;19.10;;
1699;SDS011;847;48.058;7.810;2022-08-19T09:46:18;21.13;;;19.03;;
1699;SDS011;847;48.058;7.810;2022-08-19T09:48:46;21.23;;;19.03;;
1699;SDS011;847;48.058;7.810;2022-08-19T09:51:16;22.23;;;19.93;;
1699;SDS011;847;48.058;7.810;2022-08-19T09:53:45;21.60;;;19.30;;
1699;SDS011;847;48.058;7.810;2022-08-19T09:56:15;20.33;;;18.27;;
1699;SDS011;847;48.058;7.810;2022-08-19T09:58:42;22.53;;;20.23;;
1699;SDS011;847;48.058;7.810;2022-08-19T10:01:09;23.00;;;20.73;;
1699;SDS011;847;48.058;7.810;2022-08-19T10:03:42;22.67;;;20.30;;
1699;SDS011;847;48.058;7.810;2022-08-19T10:06:09;22.90;;;20.70;;
1699;SDS011;847;48.058;7.810;2022-08-19T10:08:37;22.50;;;20.10;;
1699;SDS011;847;48.058;7.810;2022-08-19T10:11:05;20.87;;;18.77;;
1699;SDS011;847;48.058;7.810;2022-08-19T10:13:33;23.10;;;20.83;;
1699;SDS011;847;48.058;7.810;2022-08-19T10:16:02;28.23;;;21.67;;
1699;SDS011;847;48.058;7.810;2022-08-19T10:18:31;22.90;;;20.50;;
1699;SDS011;847;48.058;7.810;2022-08-19T10:21:02;23.10;;;20.80;;
1699;SDS011;847;48.058;7.810;2022-08-19T10:23:33;23.27;;;20.90;;
1699;SDS011;847;48.058;7.810;2022-08-19T10:26:02;22.90;;;20.60;;
1699;SDS011;847;48.058;7.810;2022-08-19T10:28:30;22.40;;;20.20;;
1699;SDS011;847;48.058;7.810;2022-08-19T10:30:58;23.50;;;21.10;;
1699;SDS011;847;48.058;7.810;2022-08-19T10:33:29;21.87;;;19.70;;
1699;SDS011;847;48.058;7.810;2022-08-19T10:35:58;23.83;;;21.47;;
1699;SDS011;847;48.058;7.810;2022-08-19T10:38:25;22.93;;;20.63;;
1699;SDS011;847;48.058;7.810;2022-08-19T10:40:53;24.13;;;21.73;;
1699;SDS011;847;48.058;7.810;2022-08-19T10:43:21;24.10;;;20.37;;
1699;SDS011;847;48.058;7.810;2022-08-19T10:45:51;23.30;;;20.80;;
1699;SDS011;847;48.058;7.810;2022-08-19T10:48:20;25.10;;;22.50;;
1699;SDS011;847;48.058;7.810;2022-08-19T10:50:46;23.03;;;20.40;;
1699;SDS011;847;48.058;7.810;2022-08-19T10:53:30;23.10;;;20.70;;
1699;SDS011;847;48.058;7.810;2022-08-19T10:55:57;23.80;;;20.60;;
1699;SDS011;847;48.058;7.810;2022-08-19T10:58:43;25.00;;;22.50;;
1699;SDS011;847;48.058;7.810;2022-08-19T11:01:09;24.73;;;22.20;;
1699;SDS011;847;48.058;7.810;2022-08-19T11:03:36;25.30;;;21.73;;
1699;SDS011;847;48.058;7.810;2022-08-19T11:06:04;24.40;;;21.47;;
1699;SDS011;847;48.058;7.810;2022-08-19T11:08:35;23.87;;;21.30;;
1699;SDS011;847;48.058;7.810;2022-08-19T11:11:03;23.60;;;21.33;;
1699;SDS011;847;48.058;7.810;2022-08-19T11:13:31;23.87;;;21.33;;
1699;SDS011;847;48.058;7.810;2022-08-19T11:16:02;23.37;;;21.00;;
1699;SDS011;847;48.058;7.810;2022-08-19T11:18:31;23.03;;;20.73;;
1699;SDS011;847;48.058;7.810;2022-08-19T11:21:04;25.77;;;23.00;;
1699;SDS011;847;48.058;7.810;2022-08-19T11:23:32;24.50;;;22.10;;
1699;SDS011;847;48.058;7.810;2022-08-19T11:25:59;26.20;;;23.60;;
1699;SDS011;847;48.058;7.810;2022-08-19T11:28:26;26.13;;;23.43;;
1699;SDS011;847;48.058;7.810;2022-08-19T11:30:53;24.90;;;22.30;;
1699;SDS011;847;48.058;7.810;2022-08-19T11:33:21;26.83;;;24.13;;
1699;SDS011;847;48.058;7.810;2022-08-19T11:35:48;25.97;;;23.30;;
1699;SDS011;847;48.058;7.810;2022-08-19T11:38:15;25.63;;;22.93;;
1699;SDS011;847;48.058;7.810;2022-08-19T11:40:43;28.17;;;25.30;;
1699;SDS011;847;48.058;7.810;2022-08-19T11:43:10;26.67;;;23.50;;
1699;SDS011;847;48.058;7.810;2022-08-19T11:45:36;26.37;;;23.70;;
1699;SDS011;847;48.058;7.810;2022-08-19T11:48:03;25.73;;;23.00;;
1699;SDS011;847;48.058;7.810;2022-08-19T11:50:31;25.33;;;22.83;;
1699;SDS011;847;48.058;7.810;2022-08-19T11:53:12;26.43;;;22.73;;
1699;SDS011;847;48.058;7.810;2022-08-19T11:55:39;26.33;;;23.60;;
1699;SDS011;847;48.058;7.810;2022-08-19T11:58:07;24.67;;;22.33;;
1699;SDS011;847;48.058;7.810;2022-08-19T12:00:34;26.80;;;23.93;;
1699;SDS011;847;48.058;7.810;2022-08-19T12:03:01;26.70;;;23.90;;
1699;SDS011;847;48.058;7.810;2022-08-19T12:05:28;26.27;;;23.33;;
1699;SDS011;847;48.058;7.810;2022-08-19T12:07:56;26.60;;;23.83;;
1699;SDS011;847;48.058;7.810;2022-08-19T12:10:23;26.40;;;23.67;;
1699;SDS011;847;48.058;7.810;2022-08-19T12:12:50;25.90;;;23.33;;
1699;SDS011;847;48.058;7.810;2022-08-19T12:15:17;26.30;;;23.10;;
1699;SDS011;847;48.058;7.810;2022-08-19T12:17:43;24.73;;;22.33;;
1699;SDS011;847;48.058;7.810;2022-08-19T12:20:11;25.07;;;22.50;;
1699;SDS011;847;48.058;7.810;2022-08-19T12:22:40;25.70;;;23.03;;
1699;SDS011;847;48.058;7.810;2022-08-19T12:25:09;26.47;;;23.67;;
1699;SDS011;847;48.058;7.810;2022-08-19T12:27:37;24.30;;;21.40;;
1699;SDS011;847;48.058;7.810;2022-08-19T12:30:05;22.63;;;20.33;;
1699;SDS011;847;48.058;7.810;2022-08-19T12:32:34;23.00;;;20.67;;
1699;SDS011;847;48.058;7.810;2022-08-19T12:35:01;25.50;;;22.90;;
1699;SDS011;847;48.058;7.810;2022-08-19T12:37:28;23.50;;;21.20;;
1699;SDS011;847;48.058;7.810;2022-08-19T12:39:56;26.80;;;24.10;;
1699;SDS011;847;48.058;7.810;2022-08-19T12:42:24;23.10;;;21.00;;
1699;SDS011;847;48.058;7.810;2022-08-19T12:44:51;23.00;;;20.70;;
1699;SDS011;847;48.058;7.810;2022-08-19T12:47:18;22.53;;;20.30;;
1699;SDS011;847;48.058;7.810;2022-08-19T12:49:46;24.17;;;21.50;;
1699;SDS011;847;48.058;7.810;2022-08-19T12:52:14;20.63;;;18.83;;
1699;SDS011;847;48.058;7.810;2022-08-19T12:54:41;20.40;;;18.30;;
1699;SDS011;847;48.058;7.810;2022-08-19T12:57:09;22.10;;;20.00;;
1699;SDS011;847;48.058;7.810;2022-08-19T12:59:38;20.60;;;18.70;;
1699;SDS011;847;48.058;7.810;2022-08-19T13:02:06;16.90;;;15.13;;
1699;SDS011;847;48.058;7.810;2022-08-19T13:04:34;17.77;;;15.73;;
1699;SDS011;847;48.058;7.810;2022-08-19T13:07:05;18.00;;;16.30;;
1699;SDS011;847;48.058;7.810;2022-08-19T13:09:33;19.40;;;17.60;;
1699;SDS011;847;48.058;7.810;2022-08-19T13:11:59;17.90;;;16.40;;
1699;SDS011;847;48.058;7.810;2022-08-19T13:14:32;16.07;;;14.60;;
1699;SDS011;847;48.058;7.810;2022-08-19T13:17:00;16.80;;;15.30;;
1699;SDS011;847;48.058;7.810;2022-08-19T13:19:27;17.80;;;16.13;;
1699;SDS011;847;48.058;7.810;2022-08-19T13:21:55;18.37;;;16.50;;
1699;SDS011;847;48.058;7.810;2022-08-19T13:24:22;16.20;;;14.80;;
1699;SDS011;847;48.058;7.810;2022-08-19T13:26:49;16.60;;;15.13;;
1699;SDS011;847;48.058;7.810;2022-08-19T13:29:16;15.60;;;14.10;;
1699;SDS011;847;48.058;7.810;2022-08-19T13:32:02;14.40;;;13.20;;
1699;SDS011;847;48.058;7.810;2022-08-19T13:34:48;15.80;;;14.40;;
1699;SDS011;847;48.058;7.810;2022-08-19T13:37:15;13.60;;;12.50;;
1699;SDS011;847;48.058;7.810;2022-08-19T13:40:02;15.67;;;14.37;;
1699;SDS011;847;48.058;7.810;2022-08-19T13:42:29;13.63;;;12.40;;
1699;SDS011;847;48.058;7.810;2022-08-19T13:44:57;15.67;;;14.37;;
1699;SDS011;847;48.058;7.810;2022-08-19T13:47:25;14.73;;;13.53;;
1699;SDS011;847;48.058;7.810;2022-08-19T13:49:52;14.40;;;13.10;;
1699;SDS011;847;48.058;7.810;2022-08-19T13:52:20;14.90;;;13.47;;
1699;SDS011;847;48.058;7.810;2022-08-19T13:54:47;12.40;;;11.37;;
1699;SDS011;847;48.058;7.810;2022-08-19T13:57:14;13.60;;;12.50;;
1699;SDS011;847;48.058;7.810;2022-08-19T13:59:40;12.80;;;11.60;;
1699;SDS011;847;48.058;7.810;2022-08-19T14:02:07;13.20;;;12.20;;
1699;SDS011;847;48.058;7.810;2022-08-19T14:04:37;12.87;;;11.97;;
1699;SDS011;847;48.058;7.810;2022-08-19T14:07:03;13.30;;;12.20;;
1699;SDS011;847;48.058;7.810;2022-08-19T14:09:30;14.10;;;12.90;;
1699;SDS011;847;48.058;7.810;2022-08-19T14:11:57;16.73;;;15.53;;
1699;SDS011;847;48.058;7.810;2022-08-19T14:14:24;13.83;;;12.73;;
1699;SDS011;847;48.058;7.810;2022-08-19T14:16:51;16.50;;;15.03;;
1699;SDS011;847;48.058;7.810;2022-08-19T14:19:17;13.90;;;12.77;;
1699;SDS011;847;48.058;7.810;2022-08-19T14:21:45;13.47;;;12.47;;
1699;SDS011;847;48.058;7.810;2022-08-19T14:24:12;13.53;;;12.47;;
1699;SDS011;847;48.058;7.810;2022-08-19T14:26:39;14.07;;;12.90;;
1699;SDS011;847;48.058;7.810;2022-08-19T14:29:06;13.03;;;11.90;;
1699;SDS011;847;48.058;7.810;2022-08-19T14:31:33;15.20;;;13.77;;
1699;SDS011;847;48.058;7.810;2022-08-19T14:33:59;14.10;;;12.90;;
1699;SDS011;847;48.058;7.810;2022-08-19T14:36:26;14.03;;;12.80;;
1699;SDS011;847;48.058;7.810;2022-08-19T14:38:54;14.93;;;13.70;;
1699;SDS011;847;48.058;7.810;2022-08-19T14:41:22;14.00;;;12.80;;
1699;SDS011;847;48.058;7.810;2022-08-19T14:43:50;14.13;;;13.00;;
1699;SDS011;847;48.058;7.810;2022-08-19T14:46:18;13.10;;;12.00;;
1699;SDS011;847;48.058;7.810;2022-08-19T14:48:47;13.87;;;12.67;;
1699;SDS011;847;48.058;7.810;2022-08-19T14:51:14;12.80;;;11.70;;
1699;SDS011;847;48.058;7.810;2022-08-19T14:53:41;15.40;;;14.20;;
1699;SDS011;847;48.058;7.810;2022-08-19T14:56:10;15.60;;;14.20;;
1699;SDS011;847;48.058;7.810;2022-08-19T14:58:38;14.40;;;13.30;;
1699;SDS011;847;48.058;7.810;2022-08-19T15:01:06;14.80;;;13.60;;
1699;SDS011;847;48.058;7.810;2022-08-19T15:03:33;13.57;;;12.40;;
1699;SDS011;847;48.058;7.810;2022-08-19T15:06:00;14.03;;;12.93;;
1699;SDS011;847;48.058;7.810;2022-08-19T15:08:30;14.03;;;13.00;;
1699;SDS011;847;48.058;7.810;2022-08-19T15:10:59;15.30;;;14.00;;